Time;durP1;ratioP1;P1;durP2;ratioP2;P2;SDS_P1;SDS_P2;PMS_P1;PMS_P2;Temp;Humidity;BMP_temperature;BMP_pressure;BME280_temperature;BME280_humidity;BME280_pressure;Samples;Min_cycle;Max_cycle;Signal;HPM_P1;HPM_P2
2021/07/29 00:00:19;;;;;;;8.48;4.82;;;14.30;98.00;;;;;;6241162;23;20054;-77
2021/07/29 00:02:45;;;;;;;9.70;4.88;;;14.40;98.00;;;;;;6246049;23;20065;-77
2021/07/29 00:05:12;;;;;;;8.98;4.60;;;14.40;98.00;;;;;;6243693;23;19996;-77
2021/07/29 00:07:38;;;;;;;8.02;4.70;;;14.50;98.00;;;;;;6213805;23;20059;-77
2021/07/29 00:10:05;;;;;;;7.72;4.30;;;14.50;98.00;;;;;;6215459;23;20290;-77
2021/07/29 00:12:31;;;;;;;7.70;4.50;;;14.60;98.00;;;;;;6244604;23;20329;-78
2021/07/29 00:14:56;;;;;;;8.05;4.70;;;14.50;98.00;;;;;;6212823;23;19996;-77
2021/07/29 00:20:07;;;;;;;9.02;3.72;;;14.50;98.00;;;;;;6244451;23;20007;-77
2021/07/29 00:22:33;;;;;;;9.05;5.35;;;14.50;98.00;;;;;;6247587;23;20007;-77
2021/07/29 00:24:58;;;;;;;7.40;4.57;;;14.60;98.00;;;;;;6246358;23;20000;-77
2021/07/29 00:27:24;;;;;;;6.80;4.13;;;14.70;98.00;;;;;;6245550;23;20008;-77
2021/07/29 00:29:56;;;;;;;10.32;4.78;;;14.70;98.00;;;;;;6244180;23;20010;-77
2021/07/29 00:32:21;;;;;;;7.65;4.18;;;14.70;98.00;;;;;;6244848;23;20004;-77
2021/07/29 00:34:47;;;;;;;6.93;4.47;;;14.60;98.00;;;;;;6246263;23;20012;-76
2021/07/29 00:37:13;;;;;;;9.98;4.78;;;14.60;98.00;;;;;;6242283;23;20370;-77
2021/07/29 00:39:38;;;;;;;10.18;4.88;;;14.50;98.00;;;;;;6246732;23;19996;-77
2021/07/29 00:42:04;;;;;;;7.32;4.35;;;14.60;98.00;;;;;;6246937;23;20005;-77
2021/07/29 00:44:30;;;;;;;7.45;4.20;;;14.60;98.00;;;;;;6242070;23;20016;-79
2021/07/29 00:46:57;;;;;;;7.57;4.25;;;14.60;98.00;;;;;;6246152;23;20011;-77
2021/07/29 00:49:23;;;;;;;8.07;4.00;;;14.70;98.00;;;;;;6244418;23;20008;-77
2021/07/29 00:51:49;;;;;;;7.40;4.13;;;14.70;98.00;;;;;;6242315;23;20004;-78
2021/07/29 00:54:15;;;;;;;6.60;3.92;;;14.80;98.00;;;;;;6218244;23;20223;-78
2021/07/29 00:56:45;;;;;;;6.07;4.03;;;14.80;98.00;;;;;;6246594;23;19996;-78
2021/07/29 00:59:11;;;;;;;8.45;4.18;;;14.90;98.00;;;;;;6245179;23;20101;-77
2021/07/29 01:01:37;;;;;;;8.23;3.40;;;14.80;98.00;;;;;;6216070;23;20004;-78
2021/07/29 01:04:05;;;;;;;7.35;4.13;;;14.80;98.00;;;;;;6246164;23;19996;-78
2021/07/29 01:06:31;;;;;;;6.97;4.20;;;14.80;98.00;;;;;;6246358;23;19996;-78
2021/07/29 01:09:06;;;;;;;7.18;3.55;;;14.80;98.00;;;;;;6220499;23;20035;-77
2021/07/29 01:11:32;;;;;;;6.70;4.13;;;14.70;98.00;;;;;;6247211;23;20024;-79
2021/07/29 01:14:00;;;;;;;7.40;3.97;;;14.60;98.00;;;;;;6248844;23;20070;-78
2021/07/29 01:16:26;;;;;;;13.20;4.50;;;14.60;98.00;;;;;;6245691;23;20004;-78
2021/07/29 01:18:52;;;;;;;8.98;4.35;;;14.50;98.00;;;;;;6248364;23;20004;-78
2021/07/29 01:21:17;;;;;;;6.65;4.07;;;14.50;98.00;;;;;;6247826;23;20027;-78
2021/07/29 01:23:44;;;;;;;7.18;4.00;;;14.50;98.00;;;;;;6222289;23;20421;-78
2021/07/29 01:26:12;;;;;;;6.35;4.18;;;14.50;98.00;;;;;;6248737;23;20388;-78
2021/07/29 01:28:38;;;;;;;9.48;4.32;;;14.50;98.00;;;;;;6248320;23;20000;-78
2021/07/29 01:31:04;;;;;;;7.68;3.85;;;14.50;98.00;;;;;;6246651;23;20007;-78
2021/07/29 01:33:31;;;;;;;10.15;4.55;;;14.50;98.00;;;;;;6247787;23;20004;-78
2021/07/29 01:35:56;;;;;;;8.50;4.13;;;14.60;98.00;;;;;;6246857;23;20023;-78
2021/07/29 01:38:22;;;;;;;8.73;4.30;;;14.60;98.00;;;;;;6247100;23;20254;-78
2021/07/29 01:40:47;;;;;;;8.18;3.85;;;14.70;98.00;;;;;;6248810;23;20313;-78
2021/07/29 01:43:13;;;;;;;7.82;4.65;;;14.70;98.00;;;;;;6221783;23;20058;-77
2021/07/29 01:45:39;;;;;;;8.75;4.30;;;14.70;98.00;;;;;;6246308;23;20051;-78
2021/07/29 01:48:07;;;;;;;6.07;3.90;;;14.60;98.00;;;;;;6248580;23;20011;-77
2021/07/29 01:50:33;;;;;;;8.30;4.15;;;14.60;98.00;;;;;;6243856;23;20000;-77
2021/07/29 01:52:58;;;;;;;6.55;3.67;;;14.60;98.00;;;;;;6248529;23;20012;-77
2021/07/29 01:55:24;;;;;;;8.07;4.32;;;14.60;98.00;;;;;;6248010;23;20000;-79
2021/07/29 01:57:50;;;;;;;7.85;3.65;;;14.50;98.00;;;;;;6248486;23;20043;-79
2021/07/29 02:00:16;;;;;;;6.68;3.90;;;14.50;98.00;;;;;;6219107;23;20005;-78
2021/07/29 02:02:41;;;;;;;7.97;4.40;;;14.50;98.00;;;;;;6221264;23;20000;-78
2021/07/29 02:05:07;;;;;;;7.80;3.75;;;14.50;98.00;;;;;;6247334;23;20278;-78
2021/07/29 02:07:33;;;;;;;7.28;4.35;;;14.50;98.00;;;;;;6220246;23;20079;-78
2021/07/29 02:09:59;;;;;;;8.48;4.13;;;14.60;98.00;;;;;;6247101;23;20059;-78
2021/07/29 02:12:24;;;;;;;6.05;3.72;;;14.70;98.00;;;;;;6247480;23;20004;-78
2021/07/29 02:14:50;;;;;;;6.45;3.95;;;14.60;98.00;;;;;;6245637;23;20034;-78
2021/07/29 02:17:20;;;;;;;6.43;3.83;;;14.60;98.00;;;;;;6248020;23;20362;-78
2021/07/29 02:19:46;;;;;;;9.60;3.72;;;14.60;98.00;;;;;;6221699;23;20008;-78
2021/07/29 02:22:12;;;;;;;6.55;3.30;;;14.60;98.00;;;;;;6247942;23;20095;-77
2021/07/29 02:24:37;;;;;;;7.43;4.18;;;14.70;98.00;;;;;;6247835;23;20032;-78
2021/07/29 02:27:03;;;;;;;8.95;3.97;;;14.70;98.00;;;;;;6246865;23;20020;-78
2021/07/29 02:29:29;;;;;;;6.28;3.80;;;14.80;97.90;;;;;;6245678;23;20404;-78
2021/07/29 02:31:56;;;;;;;8.52;3.58;;;14.90;97.90;;;;;;6246979;23;20363;-76
2021/07/29 02:34:22;;;;;;;8.20;4.03;;;14.90;97.80;;;;;;6247515;23;20062;-78
2021/07/29 02:36:49;;;;;;;7.13;3.70;;;15.00;97.50;;;;;;6247155;23;20089;-78
2021/07/29 02:39:15;;;;;;;8.02;3.58;;;15.10;97.40;;;;;;6247276;23;20004;-78
2021/07/29 02:41:40;;;;;;;5.32;3.30;;;15.20;97.30;;;;;;6245350;23;20269;-78
2021/07/29 02:44:06;;;;;;;6.75;3.35;;;15.20;97.20;;;;;;6247195;23;20107;-78
2021/07/29 02:46:31;;;;;;;5.30;3.15;;;15.30;97.00;;;;;;6244175;23;20023;-78
2021/07/29 02:48:57;;;;;;;5.45;3.13;;;15.40;96.50;;;;;;6246282;23;20023;-78
2021/07/29 02:51:23;;;;;;;5.72;2.95;;;15.60;95.90;;;;;;6247114;23;20015;-78
2021/07/29 02:53:48;;;;;;;8.43;3.33;;;15.80;95.60;;;;;;6248179;23;20007;-78
2021/07/29 02:56:17;;;;;;;5.38;3.03;;;15.90;95.30;;;;;;6245945;23;20004;-78
2021/07/29 02:58:44;;;;;;;5.20;2.95;;;16.00;94.50;;;;;;6247717;23;20000;-78
2021/07/29 03:01:10;;;;;;;5.10;2.83;;;16.10;94.10;;;;;;6245764;23;20004;-78
2021/07/29 03:03:36;;;;;;;5.63;2.97;;;16.20;93.60;;;;;;6220766;23;20005;-78
2021/07/29 03:06:01;;;;;;;6.20;3.00;;;16.30;93.40;;;;;;6221268;23;20004;-78
2021/07/29 03:08:27;;;;;;;4.43;2.50;;;16.50;92.50;;;;;;6246583;23;20273;-78
2021/07/29 03:10:53;;;;;;;5.05;2.63;;;16.50;92.60;;;;;;6248104;23;20015;-78
2021/07/29 03:13:19;;;;;;;6.47;3.10;;;16.40;92.30;;;;;;6220768;23;20015;-78
2021/07/29 03:15:45;;;;;;;5.97;3.08;;;16.50;92.10;;;;;;6219410;23;20062;-78
2021/07/29 03:18:11;;;;;;;5.85;3.08;;;16.50;92.00;;;;;;6248096;23;20388;-78
2021/07/29 03:20:36;;;;;;;7.40;2.80;;;16.40;91.80;;;;;;6219901;23;20091;-78
2021/07/29 03:23:02;;;;;;;5.10;2.78;;;16.40;91.50;;;;;;6221386;23;20087;-78
2021/07/29 03:25:28;;;;;;;5.57;2.83;;;16.40;91.80;;;;;;6246717;23;20035;-78
2021/07/29 03:27:54;;;;;;;5.55;2.92;;;16.40;91.70;;;;;;6247923;23;20058;-78
2021/07/29 03:30:19;;;;;;;5.53;2.75;;;16.30;91.80;;;;;;6245322;23;20384;-78
2021/07/29 03:32:45;;;;;;;5.63;3.22;;;16.30;92.30;;;;;;6247756;23;20098;-79
2021/07/29 03:35:10;;;;;;;5.07;2.90;;;16.20;92.40;;;;;;6221030;23;20074;-79
2021/07/29 03:37:36;;;;;;;5.60;2.40;;;16.30;92.00;;;;;;6247472;23;20008;-78
2021/07/29 03:40:05;;;;;;;5.55;3.10;;;16.30;92.40;;;;;;6247879;23;20047;-78
2021/07/29 03:42:32;;;;;;;5.85;3.08;;;16.50;91.90;;;;;;6220341;23;20007;-78
2021/07/29 03:44:58;;;;;;;5.22;2.67;;;16.40;92.10;;;;;;6219438;23;20117;-78
2021/07/29 03:47:24;;;;;;;6.25;3.00;;;16.40;92.80;;;;;;6247258;23;20050;-78
2021/07/29 03:49:50;;;;;;;6.38;3.00;;;16.30;92.90;;;;;;6247844;23;20083;-78
2021/07/29 03:52:16;;;;;;;5.25;2.85;;;16.30;92.80;;;;;;6247949;23;20093;-78
2021/07/29 03:54:41;;;;;;;7.22;2.97;;;16.30;93.10;;;;;;6247998;23;20004;-78
2021/07/29 03:57:09;;;;;;;5.90;3.00;;;16.30;93.00;;;;;;6223055;23;20008;-78
2021/07/29 03:59:36;;;;;;;5.70;2.75;;;16.30;93.00;;;;;;6247358;23;20315;-78
2021/07/29 04:02:09;;;;;;;6.32;2.60;;;16.20;93.10;;;;;;6249784;23;19996;-78
2021/07/29 04:04:39;;;;;;;4.93;2.80;;;16.50;91.60;;;;;;6249459;23;20065;-78
2021/07/29 04:07:05;;;;;;;6.03;2.95;;;16.70;91.00;;;;;;6222898;23;20051;-78
2021/07/29 04:09:31;;;;;;;5.90;2.47;;;16.70;91.00;;;;;;6222352;23;20677;-78
2021/07/29 04:11:57;;;;;;;5.60;3.00;;;16.80;91.00;;;;;;6249482;23;20000;-78
2021/07/29 04:14:22;;;;;;;4.95;2.80;;;16.80;90.90;;;;;;6246941;23;20179;-78
2021/07/29 04:16:48;;;;;;;5.90;2.53;;;16.80;91.60;;;;;;6249607;23;20380;-78
2021/07/29 04:19:13;;;;;;;6.65;2.85;;;16.80;90.80;;;;;;6249199;23;20004;-78
2021/07/29 04:21:39;;;;;;;4.60;2.50;;;16.90;91.20;;;;;;6248604;23;20004;-78
2021/07/29 04:24:05;;;;;;;5.95;2.80;;;16.90;91.20;;;;;;6223181;23;20000;-78
2021/07/29 04:26:30;;;;;;;4.78;2.60;;;16.90;90.80;;;;;;6248117;23;20004;-79
2021/07/29 04:28:56;;;;;;;6.38;2.50;;;16.90;91.40;;;;;;6247577;23;20012;-78
2021/07/29 04:31:21;;;;;;;4.38;2.50;;;16.90;91.10;;;;;;6247117;23;20004;-79
2021/07/29 04:33:49;;;;;;;4.95;2.55;;;16.90;90.70;;;;;;6249262;23;20130;-79
2021/07/29 04:36:14;;;;;;;5.57;2.65;;;17.00;90.50;;;;;;6249564;23;20004;-78
2021/07/29 04:38:40;;;;;;;4.55;2.40;;;17.10;90.60;;;;;;6248436;23;20030;-78
2021/07/29 04:41:06;;;;;;;5.93;2.83;;;17.10;90.60;;;;;;6248832;23;20377;-78
2021/07/29 04:43:32;;;;;;;5.13;2.70;;;17.20;90.80;;;;;;6248245;23;20083;-78
2021/07/29 04:46:02;;;;;;;5.35;2.50;;;17.20;90.40;;;;;;6247774;23;19997;-78
2021/07/29 04:48:31;;;;;;;5.70;2.63;;;17.20;91.10;;;;;;6222245;23;20004;-78
2021/07/29 04:51:04;;;;;;;4.97;2.35;;;17.10;90.70;;;;;;6249445;23;20008;-80
2021/07/29 04:53:33;;;;;;;5.78;2.63;;;17.10;91.10;;;;;;6248565;23;20016;-79
2021/07/29 04:56:01;;;;;;;5.68;2.40;;;17.10;90.70;;;;;;6249067;23;20000;-79
2021/07/29 04:58:26;;;;;;;5.50;2.88;;;17.20;90.30;;;;;;6248184;23;20004;-79
2021/07/29 05:00:52;;;;;;;5.55;2.78;;;17.30;90.30;;;;;;6247087;23;20010;-79
2021/07/29 05:03:17;;;;;;;4.30;2.45;;;17.30;89.80;;;;;;6249045;23;20077;-78
2021/07/29 05:05:43;;;;;;;5.82;2.58;;;17.40;90.90;;;;;;6246648;23;20393;-79
2021/07/29 05:08:09;;;;;;;5.53;2.33;;;17.30;90.50;;;;;;6222519;23;20366;-78
2021/07/29 05:10:34;;;;;;;5.70;2.47;;;17.30;90.60;;;;;;6248098;23;20015;-78
2021/07/29 05:13:00;;;;;;;4.93;2.60;;;17.40;90.40;;;;;;6222569;23;20011;-78
2021/07/29 05:15:25;;;;;;;4.68;2.70;;;17.50;90.20;;;;;;6246783;23;20028;-78
2021/07/29 05:17:57;;;;;;;4.80;2.63;;;17.50;90.20;;;;;;6248632;23;20007;-79
2021/07/29 05:20:23;;;;;;;6.70;3.13;;;17.50;90.20;;;;;;6247031;23;20062;-78
2021/07/29 05:22:49;;;;;;;4.95;2.95;;;17.60;90.20;;;;;;6222222;23;20000;-79
2021/07/29 05:25:22;;;;;;;5.25;2.78;;;17.60;90.10;;;;;;6249065;23;19996;-78
2021/07/29 05:27:49;;;;;;;4.90;2.58;;;17.70;89.70;;;;;;6249087;23;20000;-79
2021/07/29 05:30:15;;;;;;;4.30;2.35;;;17.80;89.70;;;;;;6247415;23;20270;-79
2021/07/29 05:32:40;;;;;;;4.30;2.28;;;17.90;89.40;;;;;;6248504;23;20004;-79
2021/07/29 05:35:06;;;;;;;7.97;3.20;;;18.00;89.30;;;;;;6248860;23;20315;-78
2021/07/29 05:37:32;;;;;;;4.70;2.40;;;18.10;88.60;;;;;;6221501;23;20058;-78
2021/07/29 05:40:00;;;;;;;4.55;2.35;;;18.10;88.30;;;;;;6250204;23;20000;-79
2021/07/29 05:42:26;;;;;;;6.80;3.30;;;18.20;87.70;;;;;;6248077;23;20012;-79
2021/07/29 05:44:52;;;;;;;6.03;2.50;;;18.30;88.40;;;;;;6247253;23;20387;-79
2021/07/29 05:47:20;;;;;;;5.10;2.65;;;18.50;88.40;;;;;;6248265;23;20049;-79
2021/07/29 05:49:46;;;;;;;6.90;2.72;;;18.50;88.10;;;;;;6248798;23;20008;-79
2021/07/29 05:52:11;;;;;;;5.28;2.60;;;18.50;87.10;;;;;;6221878;23;20270;-79
2021/07/29 05:54:37;;;;;;;6.97;2.95;;;18.50;86.40;;;;;;6221734;23;20277;-78
2021/07/29 05:57:03;;;;;;;5.35;2.70;;;18.50;86.80;;;;;;6249039;23;20083;-78
2021/07/29 05:59:28;;;;;;;4.30;2.28;;;18.50;87.40;;;;;;6246225;23;20047;-78
2021/07/29 06:01:54;;;;;;;4.25;2.20;;;18.60;87.20;;;;;;6248395;23;20007;-79
2021/07/29 06:04:19;;;;;;;6.88;2.80;;;18.80;86.30;;;;;;6248171;23;20007;-78
2021/07/29 06:06:45;;;;;;;5.15;2.53;;;18.90;85.60;;;;;;6248490;23;19996;-79
2021/07/29 06:09:11;;;;;;;6.18;2.63;;;19.10;85.90;;;;;;6248348;23;20012;-78
2021/07/29 06:11:36;;;;;;;5.53;2.60;;;19.20;86.20;;;;;;6247761;23;20015;-78
2021/07/29 06:14:02;;;;;;;7.75;2.65;;;19.00;85.60;;;;;;6248792;23;20027;-79
2021/07/29 06:16:29;;;;;;;5.57;2.60;;;18.90;85.80;;;;;;6246820;23;20000;-78
2021/07/29 06:19:55;;;;;;;5.60;2.58;;;18.80;86.20;;;;;;6247813;23;20011;-78
2021/07/29 06:21:49;;;;;;;5.28;2.85;;;18.80;86.90;;;;;;6216188;23;19996;-78
2021/07/29 06:24:16;;;;;;;6.85;3.03;;;18.80;85.90;;;;;;6221261;23;20035;-78
2021/07/29 06:26:41;;;;;;;5.30;2.60;;;18.90;85.90;;;;;;6247329;23;20004;-78
2021/07/29 06:29:07;;;;;;;6.78;2.88;;;18.80;86.30;;;;;;6247716;23;20007;-78
2021/07/29 06:31:33;;;;;;;6.30;2.78;;;18.90;85.60;;;;;;6245554;23;20008;-78
2021/07/29 06:34:02;;;;;;;4.97;2.78;;;19.10;86.00;;;;;;6248163;23;20015;-78
2021/07/29 06:36:27;;;;;;;6.65;2.45;;;19.20;85.60;;;;;;6246141;23;20385;-78
2021/07/29 06:38:53;;;;;;;5.15;2.63;;;19.20;85.00;;;;;;6247056;23;20004;-78
2021/07/29 06:41:19;;;;;;;5.80;3.13;;;19.10;85.80;;;;;;6248045;23;19996;-79
2021/07/29 06:43:47;;;;;;;5.20;2.65;;;19.20;86.10;;;;;;6247344;23;20016;-79
2021/07/29 06:46:13;;;;;;;5.22;2.70;;;19.20;86.10;;;;;;6246509;23;20024;-79
2021/07/29 06:48:39;;;;;;;8.02;2.60;;;19.20;85.40;;;;;;6247149;23;20034;-79
2021/07/29 06:51:08;;;;;;;6.35;3.47;;;19.40;84.60;;;;;;6246001;23;20004;-79
2021/07/29 06:53:36;;;;;;;4.38;2.22;;;19.80;83.80;;;;;;6245013;23;20031;-79
2021/07/29 06:56:05;;;;;;;4.88;2.42;;;20.00;83.00;;;;;;6245580;23;20075;-79
2021/07/29 06:58:31;;;;;;;7.03;3.25;;;19.70;82.80;;;;;;6218176;23;20008;-79
2021/07/29 07:01:03;;;;;;;5.00;2.80;;;19.90;81.80;;;;;;6219045;23;20385;-79
2021/07/29 07:03:30;;;;;;;10.43;3.58;;;20.00;81.80;;;;;;6245211;23;20054;-79
2021/07/29 07:06:02;;;;;;;4.95;2.75;;;20.20;81.30;;;;;;6245522;23;20003;-78
2021/07/29 07:08:28;;;;;;;6.43;2.78;;;20.00;81.40;;;;;;6244779;23;20377;-79
2021/07/29 07:10:54;;;;;;;5.20;2.83;;;19.70;82.90;;;;;;6245300;23;20007;-79
2021/07/29 07:13:19;;;;;;;5.65;3.17;;;19.40;84.30;;;;;;6218614;23;20095;-79
2021/07/29 07:15:45;;;;;;;7.43;3.20;;;19.20;84.30;;;;;;6217855;23;20008;-79
2021/07/29 07:18:11;;;;;;;6.05;3.00;;;19.10;85.00;;;;;;6220285;23;20034;-79
2021/07/29 07:20:37;;;;;;;8.45;2.70;;;19.10;84.20;;;;;;6247257;23;20000;-79
2021/07/29 07:23:02;;;;;;;7.57;3.03;;;19.10;85.00;;;;;;6246926;23;20380;-79
2021/07/29 07:25:28;;;;;;;5.00;3.05;;;19.20;85.70;;;;;;6246875;23;20000;-79
2021/07/29 07:27:54;;;;;;;5.22;3.00;;;19.40;84.70;;;;;;6247318;23;20004;-79
2021/07/29 07:30:20;;;;;;;6.10;3.00;;;19.50;84.60;;;;;;6244076;23;20000;-79
2021/07/29 07:32:45;;;;;;;6.97;3.08;;;19.70;83.80;;;;;;6220288;23;20410;-79
2021/07/29 07:35:14;;;;;;;6.10;2.88;;;19.70;83.80;;;;;;6247195;23;20000;-79
2021/07/29 07:37:42;;;;;;;6.43;2.80;;;19.80;83.50;;;;;;6220209;23;20008;-79
2021/07/29 07:40:08;;;;;;;6.78;2.90;;;20.00;83.40;;;;;;6247140;23;20305;-79
2021/07/29 07:42:34;;;;;;;10.10;3.72;;;20.10;82.40;;;;;;6246649;23;20004;-79
2021/07/29 07:44:59;;;;;;;6.40;3.28;;;20.40;82.00;;;;;;6245530;23;20012;-78
2021/07/29 07:47:26;;;;;;;4.90;2.80;;;20.60;81.40;;;;;;6247227;23;20008;-79
2021/07/29 07:49:52;;;;;;;5.75;2.75;;;20.70;80.90;;;;;;6247693;23;20061;-79
2021/07/29 07:52:18;;;;;;;7.35;2.92;;;20.50;82.20;;;;;;6220190;23;20001;-78
2021/07/29 07:54:43;;;;;;;4.60;2.55;;;20.90;81.10;;;;;;6246583;23;20004;-78
2021/07/29 07:57:09;;;;;;;6.32;2.80;;;21.40;79.20;;;;;;6248084;23;20024;-78
2021/07/29 07:59:50;;;;;;;6.43;2.95;;;21.90;78.10;;;;;;6244533;23;20381;-78
2021/07/29 08:02:16;;;;;;;5.97;2.90;;;22.00;78.20;;;;;;6247512;23;20007;-78
2021/07/29 08:04:42;;;;;;;5.90;2.95;;;22.50;76.00;;;;;;6220430;23;20004;-78
2021/07/29 08:07:07;;;;;;;6.50;2.88;;;22.50;76.30;;;;;;6247286;23;20031;-78
2021/07/29 08:09:35;;;;;;;6.03;2.65;;;22.30;77.90;;;;;;6247144;23;20372;-71
2021/07/29 08:12:01;;;;;;;6.78;2.83;;;22.60;77.20;;;;;;6247114;23;20075;-71
2021/07/29 08:14:29;;;;;;;5.85;2.90;;;23.20;75.80;;;;;;6244407;23;20776;-72
2021/07/29 08:16:55;;;;;;;9.48;3.08;;;24.40;73.40;;;;;;6246745;23;20318;-81
2021/07/29 08:19:20;;;;;;;7.63;2.97;;;23.90;72.40;;;;;;6247088;23;20035;-73
2021/07/29 08:21:46;;;;;;;5.85;3.22;;;22.60;75.20;;;;;;6247535;23;20000;-73
2021/07/29 08:24:12;;;;;;;5.70;3.20;;;21.50;78.90;;;;;;6247815;23;19996;-73
2021/07/29 08:26:37;;;;;;;5.20;2.95;;;21.90;79.70;;;;;;6246480;23;20024;-73
2021/07/29 08:29:03;;;;;;;6.13;3.40;;;21.70;79.90;;;;;;6245920;23;20004;-72
2021/07/29 08:31:29;;;;;;;5.82;2.85;;;21.30;82.70;;;;;;6246059;23;20028;-72
2021/07/29 08:33:54;;;;;;;5.45;3.00;;;20.70;82.80;;;;;;6246839;23;20004;-73
2021/07/29 08:36:20;;;;;;;11.02;3.28;;;20.20;84.20;;;;;;6246658;23;20031;-73
2021/07/29 08:38:48;;;;;;;5.53;3.20;;;19.90;85.10;;;;;;6247551;23;20004;-72
2021/07/29 08:41:18;;;;;;;6.45;3.33;;;19.60;85.40;;;;;;6247802;23;20369;-72
2021/07/29 08:43:44;;;;;;;6.72;3.30;;;19.60;85.40;;;;;;6248370;23;20008;-73
2021/07/29 08:46:13;;;;;;;6.72;3.30;;;21.00;82.50;;;;;;6247771;23;20074;-73
2021/07/29 08:48:44;;;;;;;8.43;3.10;;;21.80;79.10;;;;;;6248376;23;20004;-72
2021/07/29 08:51:10;;;;;;;6.30;2.78;;;21.60;79.30;;;;;;6222502;23;20008;-73
2021/07/29 08:53:36;;;;;;;6.45;3.00;;;22.50;79.30;;;;;;6221996;23;20034;-73
2021/07/29 08:56:01;;;;;;;5.30;2.72;;;23.70;73.80;;;;;;6222533;23;20011;-73
2021/07/29 08:58:27;;;;;;;5.47;2.92;;;24.10;73.10;;;;;;6248746;23;20380;-73
2021/07/29 09:01:06;;;;;;;5.55;3.13;;;24.50;72.10;;;;;;6220305;23;20077;-73
2021/07/29 09:03:33;;;;;;;8.15;3.15;;;25.10;71.90;;;;;;6248543;23;19996;-73
2021/07/29 09:06:09;;;;;;;6.65;3.00;;;25.80;69.30;;;;;;6249009;23;20022;-73
2021/07/29 09:08:49;;;;;;;6.30;2.90;;;24.90;69.00;;;;;;6248138;23;20079;-73
2021/07/29 09:11:35;;;;;;;6.10;2.55;;;23.20;72.70;;;;;;6248822;23;20433;-71
2021/07/29 09:14:04;;;;;;;5.93;3.00;;;22.50;76.50;;;;;;6248378;23;20000;-72
2021/07/29 09:16:34;;;;;;;5.35;2.92;;;21.70;77.40;;;;;;6247457;23;20031;-71
2021/07/29 09:19:00;;;;;;;5.95;3.10;;;21.00;79.40;;;;;;6248301;23;20008;-72
2021/07/29 09:21:26;;;;;;;5.63;3.00;;;21.30;79.50;;;;;;6248092;23;20000;-72
2021/07/29 09:24:07;;;;;;;5.05;2.80;;;21.80;78.80;;;;;;6248924;23;20057;-72
2021/07/29 09:26:57;;;;;;;5.72;3.00;;;23.10;76.10;;;;;;6248213;23;20057;-72
2021/07/29 09:29:24;;;;;;;7.60;2.72;;;24.30;74.00;;;;;;6220247;23;20074;-72
2021/07/29 09:32:17;;;;;;;4.30;2.50;;;25.40;71.10;;;;;;6248785;23;20035;-72
2021/07/29 09:34:48;;;;;;;6.07;2.80;;;25.80;69.80;;;;;;6215747;23;20008;-72
2021/07/29 09:37:15;;;;;;;6.25;3.00;;;25.80;69.30;;;;;;6248414;23;20004;-71
2021/07/29 09:39:41;;;;;;;6.85;2.92;;;25.60;68.50;;;;;;6246271;23;20008;-71
2021/07/29 09:42:15;;;;;;;11.13;3.10;;;25.70;67.50;;;;;;6247525;23;20369;-70
2021/07/29 09:44:46;;;;;;;5.90;3.03;;;24.50;69.50;;;;;;6244532;23;20013;-71
2021/07/29 09:47:12;;;;;;;7.00;3.20;;;23.50;73.20;;;;;;6247380;23;20071;-70
2021/07/29 09:49:38;;;;;;;5.25;2.88;;;23.60;72.90;;;;;;6246370;23;20000;-71
2021/07/29 09:52:05;;;;;;;7.93;3.40;;;23.40;74.30;;;;;;6220182;23;20008;-70
2021/07/29 09:54:31;;;;;;;6.50;3.03;;;24.00;72.30;;;;;;6246679;23;20002;-71
2021/07/29 09:56:57;;;;;;;6.60;3.00;;;24.20;71.70;;;;;;6247031;23;20030;-71
2021/07/29 09:59:25;;;;;;;7.65;3.00;;;24.50;70.60;;;;;;6245076;23;20007;-73
2021/07/29 10:01:51;;;;;;;8.82;2.88;;;25.20;68.70;;;;;;6247057;23;20075;-71
2021/07/29 10:04:30;;;;;;;5.78;2.90;;;25.40;68.50;;;;;;6220617;23;20000;-71
2021/07/29 10:07:00;;;;;;;7.95;3.15;;;25.10;68.20;;;;;;6246933;23;20678;-70
2021/07/29 10:09:28;;;;;;;5.07;2.67;;;25.10;67.60;;;;;;6246703;23;20004;-70
2021/07/29 10:11:58;;;;;;;5.30;2.80;;;25.00;68.80;;;;;;6247011;23;20070;-70
2021/07/29 10:15:01;;;;;;;5.78;3.13;;;24.90;69.30;;;;;;6245813;23;20004;-72
2021/07/29 10:17:55;;;;;;;6.65;3.40;;;24.90;68.20;;;;;;6124628;23;20101;-71
2021/07/29 10:20:23;;;;;;;5.10;2.88;;;24.80;69.80;;;;;;6124718;23;20010;-72
2021/07/29 10:23:10;;;;;;;8.88;3.17;;;24.80;68.70;;;;;;6125169;23;20319;-72
2021/07/29 10:25:53;;;;;;;6.60;3.05;;;25.10;67.20;;;;;;6185808;23;20004;-71
2021/07/29 10:28:26;;;;;;;7.50;3.50;;;25.70;64.60;;;;;;6247646;23;20000;-72
2021/07/29 10:30:59;;;;;;;8.30;3.53;;;24.70;66.60;;;;;;6246432;23;20008;-71
2021/07/29 10:33:27;;;;;;;6.00;3.35;;;24.00;70.10;;;;;;6220403;23;20015;-71
2021/07/29 10:35:52;;;;;;;6.55;3.47;;;23.80;69.70;;;;;;6221106;23;20382;-72
2021/07/29 10:38:47;;;;;;;10.10;3.50;;;23.80;69.60;;;;;;6247405;23;20000;-71
2021/07/29 10:41:13;;;;;;;7.72;3.38;;;23.70;70.20;;;;;;6248183;23;20046;-72
2021/07/29 10:43:40;;;;;;;8.15;3.47;;;23.10;69.20;;;;;;6246320;23;20393;-72
2021/07/29 10:46:06;;;;;;;5.95;3.28;;;23.20;70.00;;;;;;6246372;23;20046;-72
2021/07/29 10:48:45;;;;;;;6.07;3.25;;;23.60;69.70;;;;;;6246231;23;20400;-72
2021/07/29 10:51:22;;;;;;;9.15;3.53;;;24.00;69.20;;;;;;6247704;23;20282;-71
2021/07/29 10:53:54;;;;;;;6.13;3.13;;;24.70;67.70;;;;;;6247878;23;20004;-72
2021/07/29 10:56:22;;;;;;;5.72;3.20;;;25.40;66.90;;;;;;6247704;23;20015;-70
2021/07/29 10:58:49;;;;;;;5.72;3.45;;;26.00;64.90;;;;;;6247448;23;20000;-70
2021/07/29 11:01:16;;;;;;;6.18;3.03;;;25.50;64.80;;;;;;6246605;23;20000;-69
2021/07/29 11:03:49;;;;;;;7.15;3.42;;;24.60;66.80;;;;;;6247211;23;20054;-69
2021/07/29 11:06:29;;;;;;;7.32;3.63;;;24.80;67.30;;;;;;6248450;23;20000;-69
2021/07/29 11:08:54;;;;;;;7.68;3.75;;;25.10;66.00;;;;;;6248109;23;20004;-70
2021/07/29 11:11:21;;;;;;;7.60;3.67;;;25.10;67.00;;;;;;6247609;23;20243;-71
2021/07/29 11:13:48;;;;;;;6.05;3.40;;;25.50;65.40;;;;;;6247826;23;20382;-69
2021/07/29 11:16:15;;;;;;;7.43;3.35;;;25.20;66.20;;;;;;6246786;23;20435;-70
2021/07/29 11:18:41;;;;;;;5.68;3.22;;;25.50;64.90;;;;;;6247338;23;20015;-69
2021/07/29 11:21:16;;;;;;;6.68;3.00;;;25.70;66.30;;;;;;6248323;23;20004;-69
2021/07/29 11:23:43;;;;;;;6.93;3.33;;;26.30;64.50;;;;;;6246892;23;20011;-71
2021/07/29 11:26:09;;;;;;;6.35;3.33;;;26.90;65.00;;;;;;6247935;23;19997;-71
2021/07/29 11:28:35;;;;;;;7.45;3.40;;;27.60;61.50;;;;;;6246540;23;20011;-70
2021/07/29 11:31:02;;;;;;;6.35;3.40;;;26.40;63.50;;;;;;6246357;23;20308;-70
2021/07/29 11:33:29;;;;;;;8.73;3.63;;;25.40;65.40;;;;;;6246373;23;20004;-71
2021/07/29 11:35:56;;;;;;;7.78;3.78;;;24.70;67.20;;;;;;6247020;23;20004;-71
2021/07/29 11:38:23;;;;;;;6.55;3.30;;;24.80;68.10;;;;;;6247410;23;20011;-71
2021/07/29 11:40:59;;;;;;;5.88;3.20;;;24.90;66.20;;;;;;6247772;23;20012;-71
2021/07/29 11:43:29;;;;;;;5.72;3.60;;;24.40;67.60;;;;;;6246640;23;20008;-72
2021/07/29 11:46:11;;;;;;;5.85;3.08;;;24.20;68.20;;;;;;6246776;23;20004;-70
2021/07/29 11:48:38;;;;;;;5.97;3.78;;;23.90;68.70;;;;;;6247136;23;20004;-72
2021/07/29 11:51:19;;;;;;;7.10;3.42;;;24.20;68.60;;;;;;6247498;23;20004;-72
2021/07/29 11:53:45;;;;;;;7.72;3.20;;;25.20;67.20;;;;;;6246900;23;20004;-71
2021/07/29 11:56:13;;;;;;;11.68;3.67;;;25.10;65.40;;;;;;6246902;23;20014;-71
2021/07/29 11:58:41;;;;;;;7.07;4.20;;;24.50;66.40;;;;;;6219994;23;20004;-71
2021/07/29 12:01:13;;;;;;;10.20;4.10;;;23.80;67.20;;;;;;6245513;23;20312;-71
2021/07/29 12:03:45;;;;;;;6.13;3.83;;;23.20;68.50;;;;;;6243547;23;20004;-72
2021/07/29 12:06:12;;;;;;;7.00;3.70;;;23.60;68.90;;;;;;6245201;23;20079;-72
2021/07/29 12:08:40;;;;;;;6.80;3.40;;;24.20;68.10;;;;;;6244566;23;20004;-71
2021/07/29 12:11:07;;;;;;;7.75;3.65;;;24.50;65.50;;;;;;6245074;23;20031;-71
2021/07/29 12:13:33;;;;;;;6.60;3.67;;;23.90;66.70;;;;;;6244469;23;20316;-71
2021/07/29 12:15:59;;;;;;;8.63;3.50;;;23.90;68.20;;;;;;6244955;23;20000;-71
2021/07/29 12:18:25;;;;;;;6.63;3.60;;;24.70;67.60;;;;;;6246031;23;20074;-72
2021/07/29 12:20:57;;;;;;;8.57;3.65;;;24.60;66.30;;;;;;6246966;23;20031;-70
2021/07/29 12:23:23;;;;;;;6.80;3.50;;;24.10;67.80;;;;;;6244941;23;20274;-71
2021/07/29 12:25:51;;;;;;;6.05;3.55;;;23.60;68.10;;;;;;6245606;23;20004;-72
2021/07/29 12:28:45;;;;;;;7.65;3.70;;;24.00;67.50;;;;;;6219579;23;20019;-72
2021/07/29 12:31:25;;;;;;;8.68;3.53;;;23.80;67.90;;;;;;6217868;23;20004;-72
2021/07/29 12:34:05;;;;;;;6.00;3.50;;;24.30;68.20;;;;;;6247270;23;20011;-71
2021/07/29 12:36:44;;;;;;;6.05;3.20;;;25.00;66.30;;;;;;6245465;23;20085;-71
2021/07/29 12:39:11;;;;;;;6.32;3.38;;;25.30;64.50;;;;;;6245756;23;20000;-72
2021/07/29 12:41:39;;;;;;;8.80;3.50;;;24.70;65.70;;;;;;6245249;23;20099;-71
2021/07/29 12:44:19;;;;;;;7.95;3.63;;;24.80;66.30;;;;;;6245194;23;20013;-71
2021/07/29 12:46:47;;;;;;;5.88;3.38;;;25.40;65.80;;;;;;6245620;23;20011;-71
2021/07/29 12:49:15;;;;;;;6.05;3.90;;;25.30;64.80;;;;;;6245769;23;20066;-72
2021/07/29 12:51:45;;;;;;;6.38;3.33;;;25.30;64.90;;;;;;6244711;23;20258;-73